createdAt,value
2022-12-05T00:01:24.754Z,10.60
2022-12-05T00:06:56.515Z,10.70
2022-12-05T00:12:28.359Z,10.85
2022-12-05T00:18:00.081Z,10.85
2022-12-05T00:23:31.789Z,10.95
2022-12-05T00:29:03.541Z,11.05
2022-12-05T00:34:41.298Z,11.10
2022-12-05T00:40:13.197Z,11.10
2022-12-05T00:45:45.069Z,11.10
2022-12-05T00:51:22.678Z,11.15
2022-12-05T00:56:54.472Z,11.30
2022-12-05T01:02:32.273Z,11.45
2022-12-05T01:08:10.169Z,11.55
2022-12-05T01:13:47.760Z,11.65
2022-12-05T01:19:19.527Z,11.70
2022-12-05T01:24:51.187Z,11.80
2022-12-05T01:30:23.214Z,11.90
2022-12-05T01:41:24.741Z,12.10
2022-12-05T01:46:56.393Z,12.15
2022-12-05T01:52:28.361Z,12.45
2022-12-05T01:58:05.936Z,12.55
2022-12-05T02:09:21.153Z,12.70
2022-12-05T02:14:59.035Z,12.80
2022-12-05T02:20:36.827Z,12.90
2022-12-05T02:26:14.374Z,12.95
2022-12-05T02:31:52.984Z,13.00
2022-12-05T02:37:25.166Z,13.05
2022-12-05T02:39:37.336Z,1.97
2022-12-05T02:45:15.248Z,1.48
2022-12-05T02:50:47.114Z,2.30
2022-12-05T02:56:18.789Z,2.69
2022-12-05T03:01:56.440Z,2.16
2022-12-05T03:07:28.120Z,2.12
2022-12-05T03:12:59.379Z,1.96
2022-12-05T03:18:30.678Z,2.20
2022-12-05T03:24:08.164Z,2.07
2022-12-05T03:29:46.168Z,2.06
2022-12-05T03:35:18.599Z,1.87
2022-12-05T03:40:55.813Z,1.96
2022-12-05T03:46:33.432Z,1.81
2022-12-05T03:52:10.905Z,1.82
2022-12-05T03:57:48.574Z,1.76
2022-12-05T04:03:26.407Z,1.84
2022-12-05T04:09:04.244Z,1.90
2022-12-05T04:14:41.655Z,1.85
2022-12-05T04:20:13.522Z,1.80
2022-12-05T04:25:46.619Z,1.90
2022-12-05T04:31:18.077Z,1.95
2022-12-05T04:36:55.331Z,2.10
2022-12-05T04:42:33.066Z,2.20
2022-12-05T04:48:04.960Z,2.35
2022-12-05T04:53:36.707Z,2.35
2022-12-05T04:59:08.493Z,2.45
2022-12-05T05:04:40.147Z,2.80
2022-12-05T05:10:11.956Z,2.95
2022-12-05T05:15:43.846Z,3.00
2022-12-05T05:21:21.455Z,3.00
2022-12-05T05:26:58.979Z,3.00
2022-12-05T05:32:30.558Z,3.00
2022-12-05T05:38:02.040Z,3.05
2022-12-05T05:43:39.953Z,3.20
2022-12-05T05:49:11.656Z,3.25
2022-12-05T05:54:43.224Z,3.30
2022-12-05T06:00:20.762Z,3.35
2022-12-05T06:05:57.806Z,3.50
2022-12-05T06:11:29.110Z,3.60
2022-12-05T06:17:00.805Z,3.70
2022-12-05T06:22:32.673Z,3.75
2022-12-05T06:28:10.339Z,3.85
2022-12-05T06:33:42.217Z,3.85
2022-12-05T06:39:13.829Z,3.85
2022-12-05T06:44:45.422Z,4.00
2022-12-05T06:50:16.825Z,4.05
2022-12-05T06:55:48.524Z,4.25
2022-12-05T07:01:20.123Z,4.45
2022-12-05T07:06:51.714Z,4.45
2022-12-05T07:12:23.504Z,4.60
2022-12-05T07:17:55.279Z,4.60
2022-12-05T07:23:26.978Z,4.70
2022-12-05T07:28:58.807Z,4.70
2022-12-05T07:34:30.698Z,4.95
2022-12-05T07:40:02.748Z,5.10
2022-12-05T07:51:06.148Z,5.20
2022-12-05T07:56:39.205Z,5.25
2022-12-05T08:02:10.025Z,5.35
2022-12-05T08:07:41.456Z,5.50
2022-12-05T08:13:13.731Z,5.55
2022-12-05T08:18:46.053Z,5.65
2022-12-05T08:24:18.116Z,5.75
2022-12-05T08:29:49.565Z,5.85
2022-12-05T08:35:21.594Z,6.05
2022-12-05T08:40:53.266Z,6.20
2022-12-05T08:46:25.133Z,6.25
2022-12-05T08:51:57.022Z,6.55
2022-12-05T08:57:29.046Z,6.60
2022-12-05T09:03:00.820Z,6.60
2022-12-05T09:08:32.617Z,6.70
2022-12-05T09:14:04.373Z,6.70
2022-12-05T09:19:36.225Z,6.85
2022-12-05T09:25:07.877Z,6.95
2022-12-05T09:30:39.706Z,7.10
2022-12-05T09:36:11.340Z,7.20
2022-12-05T09:41:48.999Z,7.30
2022-12-05T09:52:50.263Z,7.35
2022-12-05T09:58:21.705Z,7.45
2022-12-05T10:03:53.098Z,7.60
2022-12-05T10:09:24.878Z,7.60
2022-12-05T10:14:56.919Z,7.60
2022-12-05T10:20:28.449Z,7.75
2022-12-05T10:26:00.231Z,7.75
2022-12-05T10:31:32.377Z,7.80
2022-12-05T10:37:05.672Z,7.85
2022-12-05T10:42:37.166Z,7.95
2022-12-05T10:48:09.404Z,8.00
2022-12-05T10:53:40.990Z,8.10
2022-12-05T10:59:12.785Z,8.25
2022-12-05T11:04:44.594Z,8.35
2022-12-05T11:10:16.156Z,8.50
2022-12-05T11:15:53.724Z,8.65
2022-12-05T11:21:19.588Z,8.70
2022-12-05T11:26:51.801Z,8.90
2022-12-05T11:32:23.624Z,9.00
2022-12-05T11:37:55.859Z,9.10
2022-12-05T11:43:27.910Z,9.15
2022-12-05T11:49:00.012Z,9.15
2022-12-05T11:55:03.326Z,9.30
2022-12-05T12:00:04.223Z,9.45
2022-12-05T12:05:36.227Z,9.50
2022-12-05T12:11:08.751Z,9.70
2022-12-05T12:16:40.641Z,9.70
2022-12-05T12:22:12.480Z,9.90
2022-12-05T12:27:44.876Z,10.00
2022-12-05T12:38:51.113Z,10.15
2022-12-05T12:44:19.509Z,10.35
2022-12-05T12:49:51.955Z,10.45
2022-12-05T12:55:23.792Z,10.45
2022-12-05T13:00:56.948Z,10.50
2022-12-05T13:06:28.620Z,10.50
2022-12-05T13:12:00.334Z,10.75
2022-12-05T13:17:32.367Z,10.90
2022-12-05T13:23:07.867Z,11.00
2022-12-05T13:28:36.477Z,11.15
2022-12-05T13:39:40.663Z,11.40
2022-12-05T13:45:12.969Z,11.55
2022-12-05T13:50:45.549Z,11.60
2022-12-05T13:56:17.727Z,11.70
2022-12-05T14:01:55.689Z,11.80
2022-12-05T14:07:21.886Z,11.85
2022-12-05T14:12:53.764Z,11.95
2022-12-05T14:18:26.076Z,11.95
2022-12-05T14:23:58.262Z,12.00
2022-12-05T14:29:30.298Z,12.00
2022-12-05T14:35:02.840Z,12.05
2022-12-05T14:40:35.027Z,12.15
2022-12-05T14:46:07.458Z,12.20
2022-12-05T14:51:39.443Z,12.25
2022-12-05T14:57:11.681Z,12.35
2022-12-05T15:02:43.594Z,12.50
2022-12-05T15:08:15.890Z,12.60
2022-12-05T15:13:47.941Z,12.75
2022-12-05T15:19:19.806Z,12.85
2022-12-05T15:24:57.499Z,13.05
2022-12-05T15:30:29.483Z,13.25
2022-12-05T15:36:01.425Z,13.40
2022-12-05T15:41:39.764Z,13.50
2022-12-05T15:47:11.844Z,13.55
2022-12-05T15:52:44.130Z,13.70
2022-12-05T15:54:55.726Z,1.00
2022-12-05T16:02:46.769Z,1.00
2022-12-05T16:08:18.593Z,2.97
2022-12-05T16:13:50.280Z,2.30
2022-12-05T16:19:28.449Z,1.72
2022-12-05T16:25:06.282Z,1.38
2022-12-05T16:30:38.202Z,1.47
2022-12-05T16:36:16.283Z,1.26
2022-12-05T16:41:48.157Z,1.47
2022-12-05T16:47:20.096Z,1.74
2022-12-05T16:52:52.223Z,1.96
2022-12-05T16:58:24.406Z,2.14
2022-12-05T17:03:56.310Z,2.20
2022-12-05T17:09:28.610Z,2.19
2022-12-05T17:15:01.443Z,2.31
2022-12-05T17:20:38.918Z,2.29
2022-12-05T17:26:10.653Z,2.27
2022-12-05T17:31:42.573Z,2.19
2022-12-05T17:37:14.263Z,2.18
2022-12-05T17:42:46.022Z,2.06
2022-12-05T17:48:23.565Z,2.10
2022-12-05T17:53:55.693Z,2.20
2022-12-05T17:59:27.529Z,2.25
2022-12-05T18:07:20.017Z,1.97
2022-12-05T18:12:51.621Z,1.48
2022-12-05T18:18:25.486Z,1.64
2022-12-05T18:23:57.137Z,1.22
2022-12-05T18:29:35.101Z,1.18
2022-12-05T18:35:12.567Z,1.31
2022-12-05T18:40:39.039Z,1.40
2022-12-05T18:46:11.256Z,1.47
2022-12-05T18:51:42.796Z,1.63
2022-12-05T18:57:14.992Z,1.86
2022-12-05T19:02:47.115Z,1.87
2022-12-05T19:08:25.099Z,1.80
2022-12-05T19:13:57.072Z,1.81
2022-12-05T19:19:28.898Z,1.75
2022-12-05T19:25:01.187Z,1.76
2022-12-05T19:30:38.953Z,1.71
2022-12-05T19:36:10.623Z,1.73
2022-12-05T19:41:42.364Z,1.79
2022-12-05T19:47:13.938Z,1.86
2022-12-05T19:52:51.825Z,1.85
2022-12-05T19:58:23.905Z,2.05
2022-12-05T20:09:25.752Z,2.30
2022-12-05T20:14:57.437Z,2.40
2022-12-05T20:20:29.696Z,2.40
2022-12-05T20:26:01.640Z,2.50
2022-12-05T20:31:40.462Z,2.60
2022-12-05T20:42:46.462Z,2.70
2022-12-05T20:48:14.498Z,2.85
2022-12-05T20:53:46.593Z,2.90
2022-12-05T20:59:18.165Z,3.00
2022-12-05T21:04:49.905Z,3.20
2022-12-05T21:10:21.985Z,3.25
2022-12-05T21:15:54.665Z,3.35
2022-12-05T21:26:56.388Z,3.60
2022-12-05T21:32:28.166Z,3.60
2022-12-05T21:37:59.788Z,3.65
2022-12-05T21:43:31.834Z,3.75
2022-12-05T21:49:03.432Z,3.85
2022-12-05T21:54:35.507Z,4.10
2022-12-05T22:05:37.195Z,4.25
2022-12-05T22:11:09.456Z,4.30
2022-12-05T22:16:41.749Z,4.40
2022-12-05T22:22:13.883Z,4.40
2022-12-05T22:27:45.972Z,4.45
2022-12-05T22:33:17.822Z,4.65
2022-12-05T22:38:49.874Z,4.75
2022-12-05T22:44:22.095Z,4.85
2022-12-05T22:49:54.602Z,5.05
2022-12-05T22:55:26.637Z,5.20
2022-12-05T23:06:28.156Z,5.50
2022-12-05T23:12:00.281Z,5.75
2022-12-05T23:17:32.598Z,5.80
2022-12-05T23:23:04.822Z,5.90
2022-12-05T23:28:37.024Z,6.00
2022-12-05T23:34:09.259Z,6.10
2022-12-05T23:39:41.370Z,6.10
2022-12-05T23:45:13.292Z,6.20
2022-12-05T23:50:45.481Z,6.25
2022-12-05T23:56:17.145Z,6.25
